createdAt,value
2016-12-23T00:00:19.773Z,927.35
2016-12-23T00:00:48.046Z,927.36
2016-12-23T00:01:59.325Z,927.35
2016-12-23T00:02:27.487Z,927.31
2016-12-23T00:02:55.820Z,927.35
2016-12-23T00:03:24.084Z,927.37
2016-12-23T00:03:52.405Z,927.34
2016-12-23T00:04:20.750Z,927.34
2016-12-23T00:04:48.947Z,927.34
2016-12-23T00:05:17.168Z,927.31
2016-12-23T00:05:45.403Z,927.32
2016-12-23T00:06:13.687Z,927.33
2016-12-23T00:06:42.055Z,927.32
2016-12-23T00:07:53.421Z,927.23
2016-12-23T00:08:21.675Z,927.24
2016-12-23T00:08:50.007Z,927.26
2016-12-23T00:09:18.272Z,927.26
2016-12-23T00:09:46.414Z,927.27
2016-12-23T00:10:14.752Z,927.27
2016-12-23T00:10:42.948Z,927.27
2016-12-23T00:11:11.170Z,927.27
2016-12-23T00:11:39.413Z,927.3
2016-12-23T00:12:07.506Z,927.32
2016-12-23T00:12:35.690Z,927.29
2016-12-23T00:13:46.956Z,927.28
2016-12-23T00:14:15.309Z,927.28
2016-12-23T00:14:43.636Z,927.25
2016-12-23T00:15:11.901Z,927.29
2016-12-23T00:15:40.497Z,927.26
2016-12-23T00:16:08.843Z,927.3
2016-12-23T00:16:37.138Z,927.28
2016-12-23T00:17:05.361Z,927.24
2016-12-23T00:17:33.597Z,927.27
2016-12-23T00:18:01.891Z,927.28
2016-12-23T00:18:30.170Z,927.24
2016-12-23T00:19:41.534Z,927.27
2016-12-23T00:20:09.887Z,927.26
2016-12-23T00:20:38.124Z,927.32
2016-12-23T00:21:06.315Z,927.31
2016-12-23T00:21:34.564Z,927.31
2016-12-23T00:22:02.903Z,927.35
2016-12-23T00:22:31.138Z,927.31
2016-12-23T00:22:59.463Z,927.32
2016-12-23T00:23:27.685Z,927.4
2016-12-23T00:23:55.780Z,927.39
2016-12-23T00:24:24.152Z,927.36
2016-12-23T00:25:35.411Z,927.38
2016-12-23T00:26:03.478Z,927.39
2016-12-23T00:26:31.815Z,927.42
2016-12-23T00:26:59.922Z,927.46
2016-12-23T00:27:28.160Z,927.5
2016-12-23T00:27:56.487Z,927.46
2016-12-23T00:28:24.726Z,927.49
2016-12-23T00:28:52.791Z,927.44
2016-12-23T00:29:20.914Z,927.49
2016-12-23T00:29:48.825Z,927.54
2016-12-23T00:30:17.110Z,927.53
2016-12-23T00:31:28.376Z,927.54
2016-12-23T00:31:56.528Z,927.51
2016-12-23T00:32:24.686Z,927.53
2016-12-23T00:32:52.976Z,927.56
2016-12-23T00:33:21.300Z,927.56
2016-12-23T00:33:49.629Z,927.55
2016-12-23T00:34:17.762Z,927.57
2016-12-23T00:34:45.994Z,927.64
2016-12-23T00:35:14.219Z,927.61
2016-12-23T00:35:42.322Z,927.67
2016-12-23T00:36:10.599Z,927.61
2016-12-23T00:37:21.957Z,927.68
2016-12-23T00:37:50.312Z,927.63
2016-12-23T00:38:18.644Z,927.64
2016-12-23T00:38:46.929Z,927.64
2016-12-23T00:39:15.249Z,927.64
2016-12-23T00:39:43.483Z,927.68
2016-12-23T00:40:11.714Z,927.69
2016-12-23T00:40:39.949Z,927.69
2016-12-23T00:41:08.274Z,927.7
2016-12-23T00:41:36.468Z,927.71
2016-12-23T00:42:04.862Z,927.7
2016-12-23T00:43:16.128Z,927.71
2016-12-23T00:43:44.480Z,927.75
2016-12-23T00:44:12.808Z,927.77
2016-12-23T00:44:41.106Z,927.76
2016-12-23T00:45:09.332Z,927.76
2016-12-23T00:45:37.572Z,927.8
2016-12-23T00:46:05.804Z,927.76
2016-12-23T00:46:33.938Z,927.77
2016-12-23T00:47:01.879Z,927.82
2016-12-23T00:47:30.066Z,927.88
2016-12-23T00:47:58.265Z,927.85
2016-12-23T00:49:09.534Z,927.85
2016-12-23T00:49:37.783Z,927.89
2016-12-23T00:50:06.115Z,927.91
2016-12-23T00:50:34.307Z,927.93
2016-12-23T00:51:02.636Z,927.95
2016-12-23T00:51:30.874Z,927.92
2016-12-23T00:51:59.010Z,927.92
2016-12-23T00:52:27.331Z,927.91
2016-12-23T00:52:55.553Z,927.88
2016-12-23T00:53:23.845Z,927.88
2016-12-23T00:53:52.127Z,927.91
2016-12-23T00:55:03.396Z,927.92
2016-12-23T00:55:31.647Z,927.92
2016-12-23T00:55:59.885Z,927.96
2016-12-23T00:56:28.175Z,927.91
2016-12-23T00:56:56.406Z,927.96
2016-12-23T00:57:24.733Z,927.96
2016-12-23T00:57:53.057Z,927.96
2016-12-23T00:58:21.378Z,927.97
2016-12-23T00:58:49.694Z,927.95
2016-12-23T00:59:17.881Z,927.93
2016-12-23T00:59:46.258Z,927.94
2016-12-23T01:00:57.618Z,927.95
2016-12-23T01:01:25.966Z,927.97
2016-12-23T01:01:54.300Z,927.95
2016-12-23T01:02:22.682Z,927.95
2016-12-23T01:02:51.004Z,927.97
2016-12-23T01:03:19.247Z,927.95
2016-12-23T01:03:47.571Z,927.96
2016-12-23T01:04:15.888Z,927.96
2016-12-23T01:04:44.106Z,927.96
2016-12-23T01:05:12.208Z,927.99
2016-12-23T01:05:40.490Z,928.06
2016-12-23T01:06:51.847Z,928
2016-12-23T01:07:19.918Z,928.01
2016-12-23T01:07:48.063Z,927.99
2016-12-23T01:08:16.447Z,928.04
2016-12-23T01:08:44.675Z,928.05
2016-12-23T01:09:13.005Z,928.06
2016-12-23T01:09:41.330Z,928.01
2016-12-23T01:10:09.651Z,928.02
2016-12-23T01:10:37.962Z,928.02
2016-12-23T01:11:06.152Z,928.01
2016-12-23T01:11:34.527Z,928.02
2016-12-23T01:12:45.893Z,928.02
2016-12-23T01:13:14.053Z,928.05
2016-12-23T01:13:42.299Z,928.05
2016-12-23T01:14:10.495Z,928.04
2016-12-23T01:14:38.726Z,928.03
2016-12-23T01:15:07.053Z,928.04
2016-12-23T01:15:35.193Z,927.98
2016-12-23T01:16:03.323Z,928
2016-12-23T01:16:31.547Z,928.03
2016-12-23T01:16:59.644Z,928.05
2016-12-23T01:17:28.016Z,928.06
2016-12-23T01:18:39.283Z,928.08
2016-12-23T01:19:07.540Z,928.12
2016-12-23T01:19:35.874Z,928.13
2016-12-23T01:20:04.077Z,928.12
2016-12-23T01:20:32.402Z,928.15
2016-12-23T01:21:00.736Z,928.09
2016-12-23T01:21:29.061Z,928.09
2016-12-23T01:21:57.284Z,928.13
2016-12-23T01:22:25.595Z,928.14
2016-12-23T01:22:53.881Z,928.12
2016-12-23T01:23:22.159Z,928.09
2016-12-23T01:24:33.327Z,928.11
2016-12-23T01:25:01.678Z,928.08
2016-12-23T01:25:29.918Z,928.11
2016-12-23T01:25:58.299Z,928.12
2016-12-23T01:26:26.620Z,928.12
2016-12-23T01:26:54.863Z,928.12
2016-12-23T01:27:23.199Z,928.12
2016-12-23T01:27:51.427Z,928.11
2016-12-23T01:28:19.740Z,928.12
2016-12-23T01:28:47.843Z,928.12
2016-12-23T01:29:16.213Z,928.08
2016-12-23T01:30:27.562Z,928.12
2016-12-23T01:30:55.908Z,928.12
2016-12-23T01:31:24.050Z,928.09
2016-12-23T01:31:52.335Z,928.11
2016-12-23T01:32:20.654Z,928.13
2016-12-23T01:32:48.986Z,928.1
2016-12-23T01:33:17.124Z,928.1
2016-12-23T01:33:45.255Z,928.11
2016-12-23T01:34:13.477Z,928.11
2016-12-23T01:34:41.577Z,928.03
2016-12-23T01:35:09.953Z,928.09
2016-12-23T01:36:21.132Z,928.08
2016-12-23T01:36:49.476Z,928.06
2016-12-23T01:37:17.715Z,928.06
2016-12-23T01:37:45.892Z,928.09
2016-12-23T01:38:14.111Z,928.05
2016-12-23T01:38:42.347Z,928.09
2016-12-23T01:39:10.392Z,928.07
2016-12-23T01:39:38.709Z,928.11
2016-12-23T01:40:06.931Z,928.09
2016-12-23T01:40:35.214Z,928.04
2016-12-23T01:41:03.398Z,928.05
2016-12-23T01:42:14.748Z,928.08
2016-12-23T01:42:43.003Z,928.04
2016-12-23T01:43:11.246Z,928.03
2016-12-23T01:43:39.631Z,928.06
2016-12-23T01:44:07.956Z,928.05
2016-12-23T01:44:36.201Z,928.01
2016-12-23T01:45:04.526Z,927.98
2016-12-23T01:45:32.848Z,928
2016-12-23T01:46:01.161Z,928.04
2016-12-23T01:46:29.451Z,928.01
2016-12-23T01:46:57.753Z,928.04
2016-12-23T01:48:09.000Z,928.02
2016-12-23T01:48:37.256Z,927.96
2016-12-23T01:49:05.495Z,927.99
2016-12-23T01:49:33.593Z,927.93
2016-12-23T01:50:01.924Z,927.97
2016-12-23T01:50:30.254Z,927.96
2016-12-23T01:50:58.579Z,927.95
2016-12-23T01:51:26.805Z,927.97
2016-12-23T01:51:54.930Z,927.97
2016-12-23T01:52:23.129Z,927.99
2016-12-23T01:52:51.504Z,927.97
2016-12-23T01:54:02.861Z,927.93
2016-12-23T01:54:31.209Z,927.91
2016-12-23T01:54:59.447Z,927.99
2016-12-23T01:55:27.831Z,927.97
2016-12-23T01:55:56.156Z,928
2016-12-23T01:56:24.485Z,928
2016-12-23T01:56:52.812Z,927.95
2016-12-23T01:57:21.038Z,927.97
2016-12-23T01:57:49.260Z,927.98
2016-12-23T01:58:17.549Z,927.93
2016-12-23T01:58:45.927Z,927.95
2016-12-23T01:59:57.284Z,927.96
2016-12-23T02:00:25.540Z,927.96
2016-12-23T02:00:53.874Z,927.93
2016-12-23T02:01:22.253Z,927.96
2016-12-23T02:01:50.581Z,927.99
2016-12-23T02:02:18.727Z,927.93
2016-12-23T02:02:46.861Z,927.96
2016-12-23T02:03:15.180Z,927.9
2016-12-23T02:03:43.497Z,927.95
2016-12-23T02:04:11.778Z,927.87
2016-12-23T02:04:40.147Z,927.89
2016-12-23T02:05:51.412Z,927.92
2016-12-23T02:06:19.671Z,927.88
2016-12-23T02:06:48.003Z,927.79
2016-12-23T02:07:16.388Z,927.82
2016-12-23T02:07:44.538Z,927.88
2016-12-23T02:08:12.778Z,927.8
2016-12-23T02:08:41.106Z,927.75
2016-12-23T02:09:09.333Z,927.75
2016-12-23T02:09:37.646Z,927.76
2016-12-23T02:10:05.748Z,927.79
2016-12-23T02:10:34.117Z,927.78
2016-12-23T02:11:45.469Z,927.84
2016-12-23T02:12:13.723Z,927.75
2016-12-23T02:12:42.055Z,927.74
2016-12-23T02:13:10.439Z,927.77
2016-12-23T02:13:38.764Z,927.82
2016-12-23T02:14:07.092Z,927.74
2016-12-23T02:14:35.233Z,927.74
2016-12-23T02:15:03.461Z,927.74
2016-12-23T02:15:31.782Z,927.75
2016-12-23T02:16:00.069Z,927.77
2016-12-23T02:16:28.264Z,927.74
2016-12-23T02:17:39.531Z,927.76
2016-12-23T02:18:07.692Z,927.73
2016-12-23T02:18:35.935Z,927.69
2016-12-23T02:19:04.316Z,927.67
2016-12-23T02:19:32.641Z,927.73
2016-12-23T02:20:00.973Z,927.7
2016-12-23T02:20:29.298Z,927.7
2016-12-23T02:20:57.614Z,927.64
2016-12-23T02:21:25.930Z,927.65
2016-12-23T02:21:54.030Z,927.65
2016-12-23T02:22:22.406Z,927.62
2016-12-23T02:23:33.760Z,927.62
2016-12-23T02:24:02.108Z,927.64
2016-12-23T02:24:30.436Z,927.63
2016-12-23T02:24:58.538Z,927.65
2016-12-23T02:25:26.861Z,927.64
2016-12-23T02:25:54.913Z,927.64
2016-12-23T02:26:23.239Z,927.62
2016-12-23T02:26:51.479Z,927.63
2016-12-23T02:27:19.782Z,927.64
2016-12-23T02:27:48.067Z,927.61
2016-12-23T02:28:16.445Z,927.66
2016-12-23T02:29:27.714Z,927.65
2016-12-23T02:29:56.061Z,927.67
2016-12-23T02:30:24.399Z,927.62
2016-12-23T02:30:52.682Z,927.65
2016-12-23T02:31:21.007Z,927.61
2016-12-23T02:31:49.344Z,927.64
2016-12-23T02:32:17.669Z,927.65
2016-12-23T02:32:45.897Z,927.65
2016-12-23T02:33:14.209Z,927.61
2016-12-23T02:33:42.500Z,927.69
2016-12-23T02:34:10.772Z,927.67
2016-12-23T02:35:22.159Z,927.55
2016-12-23T02:35:50.381Z,927.62
2016-12-23T02:36:18.619Z,927.63
2016-12-23T02:36:47.000Z,927.61
2016-12-23T02:37:15.326Z,927.59
2016-12-23T02:37:43.658Z,927.57
2016-12-23T02:38:11.985Z,927.58
2016-12-23T02:38:40.301Z,927.55
2016-12-23T02:39:08.615Z,927.57
2016-12-23T02:39:36.717Z,927.58
2016-12-23T02:40:04.992Z,927.56
2016-12-23T02:41:16.264Z,927.6
2016-12-23T02:41:44.518Z,927.53
2016-12-23T02:42:12.760Z,927.6
2016-12-23T02:42:40.953Z,927.56
2016-12-23T02:43:09.184Z,927.59
2016-12-23T02:43:37.422Z,927.55
2016-12-23T02:44:05.468Z,927.53
2016-12-23T02:44:33.788Z,927.53
2016-12-23T02:45:02.014Z,927.55
2016-12-23T02:45:30.139Z,927.55
2016-12-23T02:45:58.327Z,927.55
2016-12-23T02:47:09.598Z,927.52
2016-12-23T02:47:37.941Z,927.47
2016-12-23T02:48:06.182Z,927.51
2016-12-23T02:48:34.560Z,927.46
2016-12-23T02:49:02.794Z,927.46
2016-12-23T02:49:31.035Z,927.5
2016-12-23T02:49:59.361Z,927.46
2016-12-23T02:50:27.496Z,927.49
2016-12-23T02:50:55.814Z,927.44
2016-12-23T02:51:24.099Z,927.47
2016-12-23T02:51:52.475Z,927.43
2016-12-23T02:53:03.741Z,927.43
2016-12-23T02:53:31.989Z,927.39
2016-12-23T02:54:00.233Z,927.38
2016-12-23T02:54:28.522Z,927.45
2016-12-23T02:54:56.664Z,927.34
2016-12-23T02:55:24.995Z,927.39
2016-12-23T02:55:53.230Z,927.36
2016-12-23T02:56:21.457Z,927.36
2016-12-23T02:56:49.676Z,927.34
2016-12-23T02:57:17.771Z,927.36
2016-12-23T02:57:46.048Z,927.28
2016-12-23T02:58:57.221Z,927.34
2016-12-23T02:59:25.380Z,927.31
2016-12-23T02:59:53.619Z,927.29
2016-12-23T03:00:22.007Z,927.35
2016-12-23T03:00:50.333Z,927.28
2016-12-23T03:01:18.666Z,927.29
2016-12-23T03:01:46.904Z,927.33
2016-12-23T03:02:15.224Z,927.3
2016-12-23T03:02:43.443Z,927.32
2016-12-23T03:03:11.730Z,927.31
2016-12-23T03:03:40.109Z,927.3
2016-12-23T03:04:51.464Z,927.32
2016-12-23T03:05:19.812Z,927.33
2016-12-23T03:05:48.149Z,927.31
2016-12-23T03:06:16.434Z,927.28
2016-12-23T03:06:44.758Z,927.31
2016-12-23T03:07:13.091Z,927.32
2016-12-23T03:07:41.416Z,927.28
2016-12-23T03:08:09.643Z,927.28
2016-12-23T03:08:37.955Z,927.28
2016-12-23T03:09:06.242Z,927.22
2016-12-23T03:09:34.621Z,927.23
2016-12-23T03:10:45.886Z,927.24
2016-12-23T03:11:14.147Z,927.22
2016-12-23T03:11:42.482Z,927.2
2016-12-23T03:12:10.857Z,927.19
2016-12-23T03:12:39.089Z,927.13
2016-12-23T03:13:07.332Z,927.15
2016-12-23T03:13:35.567Z,927.18
2016-12-23T03:14:03.785Z,927.1
2016-12-23T03:14:32.106Z,927.15
2016-12-23T03:15:00.391Z,927.15
2016-12-23T03:15:28.757Z,927.15
2016-12-23T03:16:40.020Z,927.15
2016-12-23T03:17:08.370Z,927.09
2016-12-23T03:17:36.612Z,927.09
2016-12-23T03:18:04.993Z,927.07
2016-12-23T03:18:33.227Z,927.12
2016-12-23T03:19:01.465Z,927.07
2016-12-23T03:19:29.793Z,927.06
2016-12-23T03:19:58.023Z,927.06
2016-12-23T03:20:26.344Z,927.07
2016-12-23T03:20:54.537Z,927.04
2016-12-23T03:21:22.911Z,927.05
2016-12-23T03:22:34.271Z,927.11
2016-12-23T03:23:02.614Z,927.09
2016-12-23T03:23:30.763Z,927.04
2016-12-23T03:23:59.028Z,927.01
2016-12-23T03:24:27.350Z,927.04
2016-12-23T03:24:55.691Z,926.98
2016-12-23T03:25:23.988Z,927.03
2016-12-23T03:25:52.302Z,926.99
2016-12-23T03:26:20.626Z,927.01
2016-12-23T03:26:48.916Z,926.97
2016-12-23T03:27:17.290Z,926.94
2016-12-23T03:28:28.655Z,926.91
2016-12-23T03:28:56.911Z,926.85
2016-12-23T03:29:25.244Z,926.85
2016-12-23T03:29:53.597Z,926.84
2016-12-23T03:30:21.925Z,926.85
2016-12-23T03:30:50.268Z,926.86
2016-12-23T03:31:18.469Z,926.86
2016-12-23T03:31:46.786Z,926.83
2016-12-23T03:32:15.022Z,926.85
2016-12-23T03:32:43.213Z,926.81
2016-12-23T03:33:11.589Z,926.8
2016-12-23T03:34:22.957Z,926.84
2016-12-23T03:34:51.216Z,926.85
2016-12-23T03:35:19.455Z,926.86
2016-12-23T03:35:47.628Z,926.83
2016-12-23T03:36:15.857Z,926.85
2016-12-23T03:36:44.200Z,926.81
2016-12-23T03:37:12.493Z,926.83
2016-12-23T03:37:40.716Z,926.82
2016-12-23T03:38:09.041Z,926.85
2016-12-23T03:38:37.329Z,926.85
2016-12-23T03:39:05.697Z,926.82
2016-12-23T03:40:16.979Z,926.78
2016-12-23T03:40:45.171Z,926.8
2016-12-23T03:41:13.511Z,926.81
2016-12-23T03:41:41.868Z,926.79
2016-12-23T03:42:10.196Z,926.81
2016-12-23T03:42:38.544Z,926.83
2016-12-23T03:43:06.745Z,926.78
2016-12-23T03:43:34.984Z,926.78
2016-12-23T03:44:03.220Z,926.73
2016-12-23T03:44:31.409Z,926.75
2016-12-23T03:44:59.785Z,926.73
2016-12-23T03:46:10.970Z,926.79
2016-12-23T03:46:39.128Z,926.68
2016-12-23T03:47:07.463Z,926.73
2016-12-23T03:47:35.636Z,926.71
2016-12-23T03:48:03.958Z,926.7
2016-12-23T03:48:32.304Z,926.71
2016-12-23T03:49:00.602Z,926.73
2016-12-23T03:49:28.729Z,926.66
2016-12-23T03:49:56.958Z,926.67
2016-12-23T03:50:24.964Z,926.66
2016-12-23T03:50:53.333Z,926.67
2016-12-23T03:52:04.701Z,926.68
2016-12-23T03:52:33.049Z,926.65
2016-12-23T03:53:01.290Z,926.65
2016-12-23T03:53:29.650Z,926.62
2016-12-23T03:53:57.980Z,926.65
2016-12-23T03:54:26.325Z,926.65
2016-12-23T03:54:54.623Z,926.6
2016-12-23T03:55:22.935Z,926.65
2016-12-23T03:55:51.267Z,926.61
2016-12-23T03:56:19.463Z,926.61
2016-12-23T03:56:47.842Z,926.62
2016-12-23T03:57:59.207Z,926.62
2016-12-23T03:58:27.461Z,926.57
2016-12-23T03:58:55.610Z,926.56
2016-12-23T03:59:23.872Z,926.55
2016-12-23T03:59:52.200Z,926.53
2016-12-23T04:00:20.545Z,926.53
2016-12-23T04:00:48.838Z,926.54
2016-12-23T04:01:16.970Z,926.52
2016-12-23T04:01:45.295Z,926.55
2016-12-23T04:02:13.393Z,926.5
2016-12-23T04:02:41.677Z,926.51
2016-12-23T04:03:52.953Z,926.48
2016-12-23T04:04:21.299Z,926.47
2016-12-23T04:04:49.634Z,926.49
2016-12-23T04:05:17.807Z,926.47
2016-12-23T04:05:46.127Z,926.54
2016-12-23T04:06:14.468Z,926.5
2016-12-23T04:06:42.670Z,926.5
2016-12-23T04:07:10.888Z,926.46
2016-12-23T04:07:39.216Z,926.46
2016-12-23T04:08:07.323Z,926.49
2016-12-23T04:08:35.689Z,926.47
2016-12-23T04:09:47.052Z,926.45
2016-12-23T04:10:15.403Z,926.47
2016-12-23T04:10:43.641Z,926.43
2016-12-23T04:11:11.816Z,926.42
2016-12-23T04:11:40.043Z,926.41
2016-12-23T04:12:08.384Z,926.42
2016-12-23T04:12:36.677Z,926.41
2016-12-23T04:13:04.706Z,926.4
2016-12-23T04:13:32.942Z,926.4
2016-12-23T04:14:01.133Z,926.43
2016-12-23T04:14:29.316Z,926.43
2016-12-23T04:15:40.587Z,926.45
2016-12-23T04:16:08.934Z,926.4
2016-12-23T04:16:37.082Z,926.4
2016-12-23T04:17:05.358Z,926.39
2016-12-23T04:17:33.683Z,926.39
2016-12-23T04:18:01.928Z,926.37
2016-12-23T04:18:30.218Z,926.35
2016-12-23T04:18:58.437Z,926.37
2016-12-23T04:19:26.670Z,926.34
2016-12-23T04:19:54.862Z,926.35
2016-12-23T04:20:23.235Z,926.34
2016-12-23T04:21:34.597Z,926.29
2016-12-23T04:22:02.944Z,926.31
2016-12-23T04:22:31.187Z,926.32
2016-12-23T04:22:59.542Z,926.3
2016-12-23T04:23:27.866Z,926.25
2016-12-23T04:23:56.655Z,926.27
2016-12-23T04:24:24.856Z,926.28
2016-12-23T04:24:52.984Z,926.24
2016-12-23T04:25:21.126Z,926.25
2016-12-23T04:25:49.409Z,926.25
2016-12-23T04:26:17.785Z,926.26
2016-12-23T04:27:28.968Z,926.26
2016-12-23T04:27:57.311Z,926.28
2016-12-23T04:28:25.551Z,926.26
2016-12-23T04:28:53.912Z,926.25
2016-12-23T04:29:22.237Z,926.26
2016-12-23T04:29:50.390Z,926.27
2016-12-23T04:30:18.585Z,926.25
2016-12-23T04:30:46.708Z,926.26
2016-12-23T04:31:15.030Z,926.25
2016-12-23T04:31:43.226Z,926.26
2016-12-23T04:32:11.599Z,926.24
2016-12-23T04:33:22.876Z,926.24
2016-12-23T04:33:51.222Z,926.19
2016-12-23T04:34:19.554Z,926.22
2016-12-23T04:34:47.912Z,926.18
2016-12-23T04:35:16.238Z,926.17
2016-12-23T04:35:44.580Z,926.14
2016-12-23T04:36:12.869Z,926.15
2016-12-23T04:36:40.909Z,926.14
2016-12-23T04:37:09.234Z,926.13
2016-12-23T04:37:37.428Z,926.12
2016-12-23T04:38:05.706Z,926.12
2016-12-23T04:39:17.071Z,926.12
2016-12-23T04:39:45.417Z,926.17
2016-12-23T04:40:13.753Z,926.18
2016-12-23T04:40:42.016Z,926.16
2016-12-23T04:41:10.807Z,926.18
2016-12-23T04:41:39.152Z,926.15
2016-12-23T04:42:07.350Z,926.16
2016-12-23T04:42:35.474Z,926.17
2016-12-23T04:43:03.801Z,926.14
2016-12-23T04:43:32.086Z,926.21
2016-12-23T04:44:00.369Z,926.16
2016-12-23T04:45:11.545Z,926.11
2016-12-23T04:45:39.797Z,926.09
2016-12-23T04:46:08.038Z,926.11
2016-12-23T04:46:36.395Z,926.07
2016-12-23T04:47:04.629Z,926.08
2016-12-23T04:47:32.877Z,926.09
2016-12-23T04:48:01.172Z,926.07
2016-12-23T04:48:29.484Z,926.04
2016-12-23T04:48:57.720Z,926.08
2016-12-23T04:49:25.913Z,926.07
2016-12-23T04:49:54.655Z,926.07
2016-12-23T04:51:06.025Z,926.03
2016-12-23T04:51:34.375Z,926.02
2016-12-23T04:52:02.617Z,926.03
2016-12-23T04:52:30.972Z,925.98
2016-12-23T04:52:59.206Z,925.97
2016-12-23T04:53:27.549Z,925.99
2016-12-23T04:53:55.842Z,925.99
2016-12-23T04:54:24.060Z,925.98
2016-12-23T04:54:52.294Z,925.98
2016-12-23T04:55:20.485Z,925.92
2016-12-23T04:55:48.861Z,925.95
2016-12-23T04:57:00.137Z,926
2016-12-23T04:57:28.389Z,925.95
2016-12-23T04:57:56.631Z,925.96
2016-12-23T04:58:24.899Z,925.93
2016-12-23T04:58:53.220Z,925.94
2016-12-23T04:59:21.472Z,925.94
2016-12-23T04:59:49.671Z,925.94
2016-12-23T05:00:17.889Z,925.95
2016-12-23T05:00:46.123Z,925.93
2016-12-23T05:01:14.406Z,925.93
2016-12-23T05:01:42.779Z,925.95
2016-12-23T05:02:54.049Z,925.91
2016-12-23T05:03:22.203Z,925.96
2016-12-23T05:03:50.345Z,925.93
2016-12-23T05:04:18.609Z,925.9
2016-12-23T05:04:46.935Z,925.92
2016-12-23T05:05:15.278Z,925.88
2016-12-23T05:05:43.568Z,925.88
2016-12-23T05:06:11.796Z,925.89
2016-12-23T05:06:39.973Z,925.84
2016-12-23T05:07:08.260Z,925.87
2016-12-23T05:07:36.636Z,925.86
2016-12-23T05:08:48.004Z,925.82
2016-12-23T05:09:16.157Z,925.81
2016-12-23T05:09:44.400Z,925.79
2016-12-23T05:10:12.569Z,925.82
2016-12-23T05:10:40.894Z,925.79
2016-12-23T05:11:09.054Z,925.78
2016-12-23T05:11:37.349Z,925.82
2016-12-23T05:12:05.662Z,925.76
2016-12-23T05:12:33.989Z,925.76
2016-12-23T05:13:02.178Z,925.77
2016-12-23T05:13:30.552Z,925.78
2016-12-23T05:14:41.826Z,925.79
2016-12-23T05:15:10.080Z,925.77
2016-12-23T05:15:38.408Z,925.78
2016-12-23T05:16:06.769Z,925.77
2016-12-23T05:16:35.002Z,925.76
2016-12-23T05:17:03.348Z,925.78
2016-12-23T05:17:31.641Z,925.74
2016-12-23T05:17:59.868Z,925.75
2016-12-23T05:18:28.193Z,925.77
2016-12-23T05:18:56.293Z,925.75
2016-12-23T05:19:24.669Z,925.74
2016-12-23T05:20:36.036Z,925.76
2016-12-23T05:21:04.383Z,925.76
2016-12-23T05:21:32.621Z,925.76
2016-12-23T05:22:00.885Z,925.75
2016-12-23T05:22:29.206Z,925.76
2016-12-23T05:22:57.455Z,925.76
2016-12-23T05:23:25.753Z,925.79
2016-12-23T05:23:54.063Z,925.77
2016-12-23T05:24:22.392Z,925.8
2016-12-23T05:24:50.588Z,925.8
2016-12-23T05:25:18.967Z,925.8
2016-12-23T05:26:30.246Z,925.82
2016-12-23T05:26:58.593Z,925.85
2016-12-23T05:27:26.834Z,925.84
2016-12-23T05:27:55.197Z,925.83
2016-12-23T05:28:23.525Z,925.85
2016-12-23T05:28:51.779Z,925.81
2016-12-23T05:29:19.973Z,925.82
2016-12-23T05:29:48.103Z,925.81
2016-12-23T05:30:16.429Z,925.84
2016-12-23T05:30:44.626Z,925.83
2016-12-23T05:31:13.002Z,925.8
2016-12-23T05:32:24.278Z,925.81
2016-12-23T05:32:52.628Z,925.8
2016-12-23T05:33:20.960Z,925.8
2016-12-23T05:33:49.319Z,925.78
2016-12-23T05:34:17.548Z,925.74
2016-12-23T05:34:45.802Z,925.73
2016-12-23T05:35:14.095Z,925.74
2016-12-23T05:35:42.224Z,925.73
2016-12-23T05:36:10.550Z,925.71
2016-12-23T05:36:38.743Z,925.73
2016-12-23T05:37:07.018Z,925.7
2016-12-23T05:38:18.199Z,925.68
2016-12-23T05:38:46.458Z,925.68
2016-12-23T05:39:14.792Z,925.65
2016-12-23T05:39:43.054Z,925.7
2016-12-23T05:40:11.284Z,925.68
2016-12-23T05:40:39.533Z,925.69
2016-12-23T05:41:07.728Z,925.72
2016-12-23T05:41:36.047Z,925.72
2016-12-23T05:42:04.376Z,925.75
2016-12-23T05:42:32.570Z,925.7
2016-12-23T05:43:00.848Z,925.74
2016-12-23T05:44:12.213Z,925.76
2016-12-23T05:44:40.561Z,925.76
2016-12-23T05:45:08.893Z,925.72
2016-12-23T05:45:37.254Z,925.76
2016-12-23T05:46:05.577Z,925.75
2016-12-23T05:46:33.863Z,925.75
2016-12-23T05:47:02.154Z,925.78
2016-12-23T05:47:30.379Z,925.74
2016-12-23T05:47:58.706Z,925.73
2016-12-23T05:48:26.993Z,925.71
2016-12-23T05:48:55.365Z,925.71
2016-12-23T05:50:06.731Z,925.71
2016-12-23T05:50:35.079Z,925.66
2016-12-23T05:51:03.411Z,925.64
2016-12-23T05:51:31.584Z,925.64
2016-12-23T05:51:59.907Z,925.68
2016-12-23T05:52:28.085Z,925.64
2016-12-23T05:52:56.284Z,925.62
2016-12-23T05:53:24.315Z,925.6
2016-12-23T05:53:52.549Z,925.62
2016-12-23T05:54:20.647Z,925.63
2016-12-23T05:54:49.023Z,925.63
2016-12-23T05:56:00.395Z,925.65
2016-12-23T05:56:28.645Z,925.65
2016-12-23T05:56:56.886Z,925.64
2016-12-23T05:57:25.244Z,925.63
2016-12-23T05:57:53.562Z,925.65
2016-12-23T05:58:21.907Z,925.65
2016-12-23T05:58:50.198Z,925.66
2016-12-23T05:59:18.320Z,925.67
2016-12-23T05:59:46.648Z,925.65
2016-12-23T06:00:14.743Z,925.62
2016-12-23T06:00:43.117Z,925.6
2016-12-23T06:01:54.478Z,925.57
2016-12-23T06:02:22.824Z,925.61
2016-12-23T06:02:51.160Z,925.61
2016-12-23T06:03:19.514Z,925.59
2016-12-23T06:03:47.844Z,925.65
2016-12-23T06:04:16.093Z,925.65
2016-12-23T06:04:44.384Z,925.59
2016-12-23T06:05:12.509Z,925.61
2016-12-23T06:05:40.741Z,925.64
2016-12-23T06:06:08.932Z,925.62
2016-12-23T06:06:37.300Z,925.61
2016-12-23T06:07:48.483Z,925.64
2016-12-23T06:08:17.188Z,925.64
2016-12-23T06:08:45.520Z,925.62
2016-12-23T06:09:13.782Z,925.62
2016-12-23T06:09:42.105Z,925.62
2016-12-23T06:10:10.354Z,925.61
2016-12-23T06:10:38.645Z,925.62
2016-12-23T06:11:06.864Z,925.62
2016-12-23T06:11:35.090Z,925.63
2016-12-23T06:12:03.378Z,925.64
2016-12-23T06:12:31.744Z,925.64
2016-12-23T06:13:43.115Z,925.62
2016-12-23T06:14:11.369Z,925.61
2016-12-23T06:14:40.051Z,925.63
2016-12-23T06:15:08.409Z,925.65
2016-12-23T06:15:36.645Z,925.68
2016-12-23T06:16:04.899Z,925.63
2016-12-23T06:16:33.190Z,925.66
2016-12-23T06:17:01.315Z,925.67
2016-12-23T06:17:29.532Z,925.69
2016-12-23T06:17:57.628Z,925.68
2016-12-23T06:18:25.910Z,925.68
2016-12-23T06:19:37.184Z,925.64
2016-12-23T06:20:05.436Z,925.69
2016-12-23T06:20:33.768Z,925.68
2016-12-23T06:21:02.033Z,925.69
2016-12-23T06:21:30.349Z,925.7
2016-12-23T06:21:58.513Z,925.68
2016-12-23T06:22:26.809Z,925.7
2016-12-23T06:22:54.933Z,925.7
2016-12-23T06:23:23.165Z,925.7
2016-12-23T06:23:51.266Z,925.69
2016-12-23T06:24:19.547Z,925.72
2016-12-23T06:25:30.915Z,925.72
2016-12-23T06:25:59.259Z,925.69
2016-12-23T06:26:27.406Z,925.73
2016-12-23T06:26:55.766Z,925.7
2016-12-23T06:27:24.091Z,925.7
2016-12-23T06:27:52.434Z,925.71
2016-12-23T06:28:20.631Z,925.71
2016-12-23T06:28:48.852Z,925.71
2016-12-23T06:29:17.179Z,925.73
2016-12-23T06:29:45.462Z,925.72
2016-12-23T06:30:13.838Z,925.69
2016-12-23T06:31:25.114Z,925.69
2016-12-23T06:31:53.462Z,925.66
2016-12-23T06:32:21.795Z,925.64
2016-12-23T06:32:50.059Z,925.62
2016-12-23T06:33:18.380Z,925.66
2016-12-23T06:33:46.636Z,925.65
2016-12-23T06:34:14.927Z,925.63
2016-12-23T06:34:43.054Z,925.6
2016-12-23T06:35:11.380Z,925.61
2016-12-23T06:35:39.668Z,925.6
2016-12-23T06:36:08.042Z,925.58
2016-12-23T06:37:19.319Z,925.57
2016-12-23T06:37:47.666Z,925.54
2016-12-23T06:38:16.003Z,925.54
2016-12-23T06:38:44.183Z,925.56
2016-12-23T06:39:12.414Z,925.53
2016-12-23T06:39:40.664Z,925.55
2016-12-23T06:40:08.865Z,925.54
2016-12-23T06:40:37.178Z,925.57
2016-12-23T06:41:05.503Z,925.57
2016-12-23T06:41:33.603Z,925.58
2016-12-23T06:42:01.972Z,925.59
2016-12-23T06:43:13.246Z,925.6